Time;durP1;ratioP1;P1;durP2;ratioP2;P2;SDS_P1;SDS_P2;PMS_P1;PMS_P2;Temp;Humidity;BMP_temperature;BMP_pressure;BME280_temperature;BME280_humidity;BME280_pressure;Samples;Min_cycle;Max_cycle;Signal;HPM_P1;HPM_P2
2022/02/13 00:00:16;;;;;;;11.23;10.00;;;;;;;;;;2072862;28;20189;-62
2022/02/13 00:01:18;;;;;;;9.20;8.00;;;;;;;;;;2073570;28;20180;-62
2022/02/13 00:02:18;;;;;;;12.70;8.57;;;;;;;;;;2066870;28;20197;-61
2022/02/13 00:03:18;;;;;;;12.03;9.00;;;;;;;;;;2065440;28;20584;-63
2022/02/13 00:04:19;;;;;;;10.43;8.23;;;;;;;;;;2065463;28;20240;-62
2022/02/13 00:05:19;;;;;;;8.77;7.47;;;;;;;;;;2066016;28;20268;-64
2022/02/13 00:06:19;;;;;;;8.50;7.00;;;;;;;;;;2072755;28;20175;-59
2022/02/13 00:07:20;;;;;;;12.47;7.50;;;;;;;;;;2073591;28;20181;-63
2022/02/13 00:08:20;;;;;;;10.30;7.70;;;;;;;;;;2073458;28;20181;-60
2022/02/13 00:09:20;;;;;;;11.13;8.07;;;;;;;;;;2074210;28;20276;-63
2022/02/13 00:10:21;;;;;;;9.00;7.93;;;;;;;;;;2069845;28;20174;-62
2022/02/13 00:11:21;;;;;;;7.67;6.87;;;;;;;;;;2066151;28;20630;-63
2022/02/13 00:12:22;;;;;;;9.50;6.73;;;;;;;;;;2071890;28;20189;-61
2022/02/13 00:13:22;;;;;;;7.70;6.20;;;;;;;;;;2073561;28;20177;-57
2022/02/13 00:14:22;;;;;;;6.70;6.10;;;;;;;;;;2073780;28;20168;-62
2022/02/13 00:15:22;;;;;;;6.80;6.20;;;;;;;;;;2073970;28;20180;-62
2022/02/13 00:16:23;;;;;;;8.23;6.87;;;;;;;;;;2074123;28;20214;-62
2022/02/13 00:17:23;;;;;;;7.53;6.17;;;;;;;;;;2073111;28;20275;-62
2022/02/13 00:18:24;;;;;;;8.00;7.20;;;;;;;;;;2073364;28;20173;-61
2022/02/13 00:19:24;;;;;;;9.20;6.23;;;;;;;;;;2073984;28;20802;-63
2022/02/13 00:20:24;;;;;;;7.43;6.60;;;;;;;;;;2068774;28;20649;-60
2022/02/13 00:21:25;;;;;;;6.87;6.17;;;;;;;;;;2065322;28;20170;-64
2022/02/13 00:22:26;;;;;;;8.93;6.80;;;;;;;;;;2071678;28;20240;-61
2022/02/13 00:23:26;;;;;;;10.17;6.70;;;;;;;;;;2073032;28;20169;-62
2022/02/13 00:24:26;;;;;;;11.13;6.80;;;;;;;;;;2073552;28;20173;-63
2022/02/13 00:25:28;;;;;;;8.83;6.70;;;;;;;;;;2074095;28;20172;-61
2022/02/13 00:26:28;;;;;;;6.83;6.17;;;;;;;;;;2073538;28;20942;-63
2022/02/13 00:27:28;;;;;;;8.40;6.60;;;;;;;;;;2071869;28;20185;-62
2022/02/13 00:28:28;;;;;;;7.07;6.37;;;;;;;;;;2074086;28;20169;-62
2022/02/13 00:29:29;;;;;;;9.47;6.37;;;;;;;;;;2076560;28;20288;-63
2022/02/13 00:30:29;;;;;;;7.57;6.10;;;;;;;;;;2072209;28;20260;-61
2022/02/13 00:31:30;;;;;;;10.17;6.87;;;;;;;;;;2069149;28;20166;-63
2022/02/13 00:32:30;;;;;;;9.03;6.67;;;;;;;;;;2076418;28;20188;-62
2022/02/13 00:33:32;;;;;;;12.37;7.30;;;;;;;;;;2077695;28;20173;-63
2022/02/13 00:34:32;;;;;;;7.53;6.10;;;;;;;;;;2077629;28;20594;-63
2022/02/13 00:35:33;;;;;;;7.83;6.60;;;;;;;;;;2077062;28;20354;-61
2022/02/13 00:36:33;;;;;;;6.90;5.80;;;;;;;;;;2076866;28;20626;-62
2022/02/13 00:37:34;;;;;;;7.60;6.70;;;;;;;;;;2077523;28;20540;-62
2022/02/13 00:38:34;;;;;;;7.13;5.90;;;;;;;;;;2077408;28;20161;-61
2022/02/13 00:39:34;;;;;;;10.90;6.60;;;;;;;;;;2077076;28;20201;-62
2022/02/13 00:40:35;;;;;;;7.47;6.67;;;;;;;;;;2077127;28;20169;-59
2022/02/13 00:41:35;;;;;;;7.90;6.10;;;;;;;;;;2077467;28;20181;-63
2022/02/13 00:42:36;;;;;;;10.30;6.30;;;;;;;;;;2069583;28;20204;-63
2022/02/13 00:43:37;;;;;;;6.57;5.97;;;;;;;;;;2076934;28;20260;-63
2022/02/13 00:44:37;;;;;;;7.67;6.33;;;;;;;;;;2077389;28;20499;-63
2022/02/13 00:45:38;;;;;;;6.47;5.87;;;;;;;;;;2071724;28;20225;-64
2022/02/13 00:46:38;;;;;;;9.83;5.90;;;;;;;;;;2070613;28;20254;-64
2022/02/13 00:47:38;;;;;;;9.20;6.53;;;;;;;;;;2069897;28;20185;-61
2022/02/13 00:48:38;;;;;;;9.33;6.43;;;;;;;;;;2069817;28;20257;-63
2022/02/13 00:49:39;;;;;;;6.40;5.80;;;;;;;;;;2067880;28;20823;-62
2022/02/13 00:50:39;;;;;;;6.07;5.57;;;;;;;;;;2069429;28;20645;-62
2022/02/13 00:51:40;;;;;;;7.77;5.87;;;;;;;;;;2068352;28;20580;-62
2022/02/13 00:52:40;;;;;;;9.33;6.50;;;;;;;;;;2072891;28;20601;-61
2022/02/13 00:53:40;;;;;;;8.63;6.97;;;;;;;;;;2064053;28;20569;-61
2022/02/13 00:54:40;;;;;;;9.60;7.23;;;;;;;;;;2063902;28;20275;-61
2022/02/13 00:55:41;;;;;;;12.90;7.73;;;;;;;;;;2064141;28;20292;-58
2022/02/13 00:56:41;;;;;;;7.77;6.97;;;;;;;;;;2068834;28;20209;-60
2022/02/13 00:57:43;;;;;;;7.03;6.33;;;;;;;;;;2065950;28;20663;-60
2022/02/13 00:58:44;;;;;;;6.60;6.00;;;;;;;;;;2066178;28;20177;-61
2022/02/13 00:59:44;;;;;;;7.23;6.53;;;;;;;;;;2073815;28;20641;-61
2022/02/13 01:00:45;;;;;;;6.80;5.80;;;;;;;;;;2072949;28;20204;-60
2022/02/13 01:01:45;;;;;;;8.13;6.40;;;;;;;;;;2072238;28;20279;-61
2022/02/13 01:02:45;;;;;;;6.40;5.80;;;;;;;;;;2065420;28;20205;-62
2022/02/13 01:03:45;;;;;;;7.50;6.37;;;;;;;;;;2065514;28;20661;-60
2022/02/13 01:04:46;;;;;;;9.57;6.40;;;;;;;;;;2065099;28;20545;-61
2022/02/13 01:05:46;;;;;;;7.23;6.53;;;;;;;;;;2065755;28;20178;-62
2022/02/13 01:06:47;;;;;;;6.23;5.67;;;;;;;;;;2065408;28;20188;-61
2022/02/13 01:07:47;;;;;;;7.13;6.53;;;;;;;;;;2065515;28;20178;-61
2022/02/13 01:08:48;;;;;;;9.00;6.10;;;;;;;;;;2065305;28;20269;-62
2022/02/13 01:09:48;;;;;;;6.10;5.53;;;;;;;;;;2064788;28;20236;-61
2022/02/13 01:10:48;;;;;;;8.90;6.03;;;;;;;;;;2064642;28;20802;-63
2022/02/13 01:11:48;;;;;;;7.87;6.03;;;;;;;;;;2066036;28;20182;-63
2022/02/13 01:12:48;;;;;;;6.03;5.43;;;;;;;;;;2072951;28;20207;-62
2022/02/13 01:13:50;;;;;;;6.27;5.63;;;;;;;;;;2071914;28;20272;-61
2022/02/13 01:14:51;;;;;;;7.20;6.17;;;;;;;;;;2065015;28;20177;-62
2022/02/13 01:15:51;;;;;;;9.57;6.53;;;;;;;;;;2064817;28;20288;-60
2022/02/13 01:16:51;;;;;;;8.60;5.97;;;;;;;;;;2064708;28;20181;-61
2022/02/13 01:17:51;;;;;;;6.63;6.03;;;;;;;;;;2065468;28;20201;-62
2022/02/13 01:18:52;;;;;;;12.20;6.57;;;;;;;;;;2065028;28;20177;-59
2022/02/13 01:19:52;;;;;;;7.10;5.97;;;;;;;;;;2065593;28;20166;-60
2022/02/13 01:20:53;;;;;;;7.70;6.50;;;;;;;;;;2065476;28;20174;-64
2022/02/13 01:21:53;;;;;;;8.67;5.93;;;;;;;;;;2066538;28;20189;-63
2022/02/13 01:22:53;;;;;;;7.60;5.87;;;;;;;;;;2073598;28;20196;-61
2022/02/13 01:23:53;;;;;;;8.37;7.13;;;;;;;;;;2073448;28;20549;-63
2022/02/13 01:24:54;;;;;;;6.57;5.73;;;;;;;;;;2072258;28;20671;-61
2022/02/13 01:25:54;;;;;;;6.53;5.97;;;;;;;;;;2072915;28;20251;-63
2022/02/13 01:26:54;;;;;;;15.67;11.57;;;;;;;;;;2073426;28;20219;-61
2022/02/13 01:27:54;;;;;;;8.97;6.27;;;;;;;;;;2073477;28;20164;-61
2022/02/13 01:28:55;;;;;;;7.00;6.27;;;;;;;;;;2072785;28;20336;-62
2022/02/13 01:29:55;;;;;;;8.90;6.70;;;;;;;;;;2070982;28;20208;-61
2022/02/13 01:31:00;;;;;;;8.13;6.30;;;;;;;;;;2073088;28;20207;-63
2022/02/13 01:32:01;;;;;;;9.93;6.00;;;;;;;;;;2071126;28;20228;-64
2022/02/13 01:33:01;;;;;;;10.67;6.07;;;;;;;;;;2065404;28;20173;-61
2022/02/13 01:34:02;;;;;;;7.90;5.77;;;;;;;;;;2064896;28;20198;-63
2022/02/13 01:35:03;;;;;;;7.03;6.33;;;;;;;;;;2064576;28;20320;-63
2022/02/13 01:36:03;;;;;;;6.03;5.43;;;;;;;;;;2064643;28;20244;-61
2022/02/13 01:37:04;;;;;;;10.03;7.30;;;;;;;;;;2065386;28;20759;-59
2022/02/13 01:38:05;;;;;;;8.13;6.30;;;;;;;;;;2065183;28;20166;-60
2022/02/13 01:39:06;;;;;;;8.40;6.57;;;;;;;;;;2065285;28;20229;-58
2022/02/13 01:40:06;;;;;;;8.50;6.10;;;;;;;;;;2065170;28;20177;-63
2022/02/13 01:41:07;;;;;;;7.30;6.07;;;;;;;;;;2065270;28;20192;-63
2022/02/13 01:42:09;;;;;;;6.63;5.93;;;;;;;;;;2067569;28;20675;-63
2022/02/13 01:43:09;;;;;;;7.83;6.50;;;;;;;;;;2073466;28;20247;-63
2022/02/13 01:44:26;;;;;;;7.17;6.13;;;;;;;;;;2072497;28;20593;-63
2022/02/13 01:45:27;;;;;;;8.20;6.37;;;;;;;;;;2073036;28;20712;-63
2022/02/13 01:46:27;;;;;;;7.00;6.27;;;;;;;;;;2065032;28;20240;-61
2022/02/13 01:47:32;;;;;;;7.53;6.37;;;;;;;;;;2065324;28;20239;-59
2022/02/13 01:48:33;;;;;;;8.53;6.37;;;;;;;;;;2064638;28;20223;-64
2022/02/13 01:49:33;;;;;;;10.93;6.60;;;;;;;;;;2064662;28;20247;-63
2022/02/13 01:50:37;;;;;;;9.00;6.53;;;;;;;;;;2065252;28;20633;-63
2022/02/13 01:51:37;;;;;;;8.27;6.73;;;;;;;;;;2066342;28;20177;-62
2022/02/13 01:52:39;;;;;;;8.77;6.27;;;;;;;;;;2070625;28;20177;-62
2022/02/13 01:53:40;;;;;;;8.67;6.37;;;;;;;;;;2066443;28;20188;-65
2022/02/13 01:54:40;;;;;;;8.63;6.03;;;;;;;;;;2064904;28;20720;-62
2022/02/13 01:55:43;;;;;;;8.57;6.50;;;;;;;;;;2066382;28;20180;-62
2022/02/13 01:56:44;;;;;;;7.53;6.20;;;;;;;;;;2071177;28;20606;-63
2022/02/13 01:57:44;;;;;;;8.37;6.87;;;;;;;;;;2071792;28;20165;-61
2022/02/13 01:58:45;;;;;;;7.60;6.20;;;;;;;;;;2073292;28;20188;-62
2022/02/13 01:59:45;;;;;;;7.57;6.33;;;;;;;;;;2073087;28;20173;-63
2022/02/13 02:00:45;;;;;;;8.10;6.30;;;;;;;;;;2073161;28;20169;-60
2022/02/13 02:01:46;;;;;;;8.73;6.57;;;;;;;;;;2073033;28;20189;-61
2022/02/13 02:02:46;;;;;;;10.47;6.57;;;;;;;;;;2065219;28;20201;-61
2022/02/13 02:03:46;;;;;;;8.60;6.13;;;;;;;;;;2065292;28;20204;-63
2022/02/13 02:04:47;;;;;;;7.27;6.00;;;;;;;;;;2063959;28;20692;-64
2022/02/13 02:05:48;;;;;;;7.97;6.27;;;;;;;;;;2064431;28;20272;-63
2022/02/13 02:06:51;;;;;;;10.90;6.07;;;;;;;;;;2064915;28;20293;-63
2022/02/13 02:07:52;;;;;;;8.77;6.40;;;;;;;;;;2064483;28;20173;-62
2022/02/13 02:08:52;;;;;;;7.70;6.57;;;;;;;;;;2064184;28;20185;-63
2022/02/13 02:09:52;;;;;;;7.77;6.17;;;;;;;;;;2064553;28;20170;-62
2022/02/13 02:10:53;;;;;;;8.80;6.17;;;;;;;;;;2064808;28;20187;-62
2022/02/13 02:11:53;;;;;;;6.80;5.87;;;;;;;;;;2065128;28;20169;-62
2022/02/13 02:12:54;;;;;;;8.47;6.47;;;;;;;;;;2066220;28;20235;-62
2022/02/13 02:13:54;;;;;;;8.30;6.23;;;;;;;;;;2064938;28;20227;-62
2022/02/13 02:14:55;;;;;;;7.97;6.17;;;;;;;;;;2064687;28;20174;-61
2022/02/13 02:15:55;;;;;;;7.57;6.07;;;;;;;;;;2065043;28;20207;-64
2022/02/13 02:16:55;;;;;;;9.30;6.03;;;;;;;;;;2067707;28;20655;-62
2022/02/13 02:17:55;;;;;;;6.63;5.83;;;;;;;;;;2073022;28;20538;-62
2022/02/13 02:18:56;;;;;;;8.50;6.07;;;;;;;;;;2069006;28;20186;-62
2022/02/13 02:19:56;;;;;;;6.63;5.87;;;;;;;;;;2064477;28;20268;-62
2022/02/13 02:21:02;;;;;;;8.60;6.43;;;;;;;;;;2066711;28;20179;-60
2022/02/13 02:22:07;;;;;;;6.90;6.30;;;;;;;;;;2073139;28;20171;-62
2022/02/13 02:23:07;;;;;;;6.33;5.57;;;;;;;;;;2072780;28;20177;-62
2022/02/13 02:24:14;;;;;;;6.73;5.70;;;;;;;;;;2072150;28;20263;-64
2022/02/13 02:25:16;;;;;;;6.07;5.47;;;;;;;;;;2072104;28;20173;-61
2022/02/13 02:26:19;;;;;;;6.47;5.87;;;;;;;;;;2073042;28;20173;-62
2022/02/13 02:27:20;;;;;;;7.33;5.90;;;;;;;;;;2073097;28;20173;-61
2022/02/13 02:28:20;;;;;;;8.07;6.07;;;;;;;;;;2073018;28;20410;-59
2022/02/13 02:29:20;;;;;;;8.07;6.43;;;;;;;;;;2071376;28;20188;-63
2022/02/13 02:30:21;;;;;;;6.53;5.93;;;;;;;;;;2072998;28;20291;-63
2022/02/13 02:31:21;;;;;;;7.27;6.13;;;;;;;;;;2072855;28;20172;-63
2022/02/13 02:32:21;;;;;;;5.70;5.20;;;;;;;;;;2073062;28;20241;-60
2022/02/13 02:33:21;;;;;;;7.33;5.60;;;;;;;;;;2072786;28;20185;-62
2022/02/13 02:34:22;;;;;;;5.83;5.30;;;;;;;;;;2070993;28;20545;-63
2022/02/13 02:35:23;;;;;;;5.90;5.27;;;;;;;;;;2073009;28;20644;-63
2022/02/13 02:36:23;;;;;;;9.73;5.57;;;;;;;;;;2072532;28;20664;-62
2022/02/13 02:37:24;;;;;;;6.67;5.97;;;;;;;;;;2072456;28;20219;-62
2022/02/13 02:38:24;;;;;;;6.40;5.80;;;;;;;;;;2072046;28;20185;-62
2022/02/13 02:39:25;;;;;;;8.20;5.80;;;;;;;;;;2066077;28;20193;-62
2022/02/13 02:40:25;;;;;;;7.90;6.47;;;;;;;;;;2064781;28;20186;-59
2022/02/13 02:41:26;;;;;;;8.80;5.80;;;;;;;;;;2065031;28;20264;-62
2022/02/13 02:42:26;;;;;;;8.37;5.77;;;;;;;;;;2064882;28;20248;-62
2022/02/13 02:43:26;;;;;;;8.30;5.73;;;;;;;;;;2064997;28;20209;-61
2022/02/13 02:44:26;;;;;;;6.33;5.30;;;;;;;;;;2064402;28;20544;-62
2022/02/13 02:45:27;;;;;;;8.37;5.77;;;;;;;;;;2065183;28;20688;-61
2022/02/13 02:46:27;;;;;;;7.93;5.57;;;;;;;;;;2064758;28;20170;-62
2022/02/13 02:47:27;;;;;;;6.30;5.23;;;;;;;;;;2064306;28;20188;-64
2022/02/13 02:48:27;;;;;;;5.87;5.37;;;;;;;;;;2067761;28;20169;-62
2022/02/13 02:49:28;;;;;;;6.33;5.70;;;;;;;;;;2065748;28;20239;-62
2022/02/13 02:50:28;;;;;;;7.70;5.70;;;;;;;;;;2064865;28;20224;-62
2022/02/13 02:51:28;;;;;;;7.97;5.70;;;;;;;;;;2064894;28;20174;-62
2022/02/13 02:52:28;;;;;;;6.10;5.20;;;;;;;;;;2064852;28;20186;-62
2022/02/13 02:53:29;;;;;;;6.47;5.50;;;;;;;;;;2065325;28;20231;-60
2022/02/13 02:54:30;;;;;;;8.63;6.27;;;;;;;;;;2063849;28;20232;-62
2022/02/13 02:55:30;;;;;;;9.97;5.80;;;;;;;;;;2066110;28;20181;-63
2022/02/13 02:56:30;;;;;;;13.40;6.40;;;;;;;;;;2071007;28;20173;-60
2022/02/13 02:57:31;;;;;;;6.17;5.47;;;;;;;;;;2061916;28;20264;-62
2022/02/13 02:58:31;;;;;;;6.17;5.57;;;;;;;;;;2064325;28;20200;-62
2022/02/13 02:59:32;;;;;;;7.70;5.47;;;;;;;;;;2065208;28;20227;-63
2022/02/13 03:00:32;;;;;;;6.47;5.97;;;;;;;;;;2070216;28;20189;-61
2022/02/13 03:01:32;;;;;;;7.67;6.00;;;;;;;;;;2070055;28;20184;-59
2022/02/13 03:02:33;;;;;;;6.83;5.80;;;;;;;;;;2065172;28;20316;-61
2022/02/13 03:03:33;;;;;;;10.47;6.20;;;;;;;;;;2067817;28;20189;-63
2022/02/13 03:04:34;;;;;;;6.53;5.37;;;;;;;;;;2072620;28;20553;-62
2022/02/13 03:05:34;;;;;;;5.97;5.47;;;;;;;;;;2064244;28;20220;-61
2022/02/13 03:06:34;;;;;;;9.40;5.70;;;;;;;;;;2072700;28;20227;-61
2022/02/13 03:07:34;;;;;;;7.27;5.30;;;;;;;;;;2073473;28;20264;-60
2022/02/13 03:08:35;;;;;;;6.63;5.87;;;;;;;;;;2070449;28;20257;-62
2022/02/13 03:09:35;;;;;;;7.40;5.40;;;;;;;;;;2065046;28;20194;-60
2022/02/13 03:10:36;;;;;;;6.73;5.80;;;;;;;;;;2064997;28;20300;-63
2022/02/13 03:11:36;;;;;;;10.17;5.93;;;;;;;;;;2065122;28;20162;-59
2022/02/13 03:12:36;;;;;;;7.63;6.10;;;;;;;;;;2065270;28;20663;-60
2022/02/13 03:13:37;;;;;;;9.40;5.63;;;;;;;;;;2067220;28;20180;-62
2022/02/13 03:14:37;;;;;;;6.67;5.97;;;;;;;;;;2072723;28;20192;-60
2022/02/13 03:15:37;;;;;;;6.67;6.00;;;;;;;;;;2072679;28;20173;-61
2022/02/13 03:16:38;;;;;;;5.90;5.33;;;;;;;;;;2074498;28;20173;-62
2022/02/13 03:17:38;;;;;;;11.13;6.43;;;;;;;;;;2074306;28;20173;-60
2022/02/13 03:18:40;;;;;;;7.33;5.17;;;;;;;;;;2073865;28;20165;-57
2022/02/13 03:19:41;;;;;;;7.37;5.67;;;;;;;;;;2091551;23;20972;-57
2022/02/13 03:20:41;;;;;;;8.80;6.77;;;;;;;;;;2071545;28;20682;-59
2022/02/13 03:21:41;;;;;;;6.00;5.50;;;;;;;;;;2073550;28;20540;-55
2022/02/13 03:22:42;;;;;;;7.93;6.20;;;;;;;;;;2072517;28;20220;-58
2022/02/13 03:23:43;;;;;;;6.60;5.90;;;;;;;;;;2073503;28;20272;-61
2022/02/13 03:24:43;;;;;;;8.23;5.90;;;;;;;;;;2081949;28;20739;-57
2022/02/13 03:25:44;;;;;;;8.03;5.67;;;;;;;;;;2075748;28;20208;-55
2022/02/13 03:26:44;;;;;;;7.03;5.80;;;;;;;;;;2068162;28;20170;-58
2022/02/13 03:27:44;;;;;;;7.50;5.83;;;;;;;;;;2074990;28;20273;-59
2022/02/13 03:28:44;;;;;;;9.10;5.93;;;;;;;;;;2073930;28;20177;-60
2022/02/13 03:29:45;;;;;;;7.73;6.23;;;;;;;;;;2063772;28;20200;-59
2022/02/13 03:30:45;;;;;;;9.00;5.90;;;;;;;;;;2061026;28;20185;-58
2022/02/13 03:31:46;;;;;;;7.87;5.87;;;;;;;;;;2066600;28;20223;-59
2022/02/13 03:32:46;;;;;;;9.07;6.87;;;;;;;;;;2065674;28;20193;-57
2022/02/13 03:33:46;;;;;;;10.03;6.07;;;;;;;;;;2066933;28;20170;-59
2022/02/13 03:34:47;;;;;;;6.60;6.00;;;;;;;;;;2065145;28;20638;-58
2022/02/13 03:35:47;;;;;;;6.30;5.70;;;;;;;;;;2058779;28;20277;-60
2022/02/13 03:36:48;;;;;;;7.63;6.57;;;;;;;;;;2066457;28;20177;-59
2022/02/13 03:37:50;;;;;;;6.63;6.00;;;;;;;;;;2074433;28;20569;-59
2022/02/13 03:38:51;;;;;;;10.47;6.07;;;;;;;;;;2073085;28;20179;-58
2022/02/13 03:39:51;;;;;;;6.63;6.00;;;;;;;;;;2066527;28;20433;-59
2022/02/13 03:40:52;;;;;;;9.27;6.37;;;;;;;;;;2064976;28;20540;-59
2022/02/13 03:41:52;;;;;;;10.73;6.63;;;;;;;;;;2066785;28;20181;-59
2022/02/13 03:42:53;;;;;;;6.80;6.03;;;;;;;;;;2066550;28;20293;-63
2022/02/13 03:43:53;;;;;;;9.00;6.10;;;;;;;;;;2065547;28;20678;-60
2022/02/13 03:44:53;;;;;;;8.13;6.67;;;;;;;;;;2065513;28;20229;-59
2022/02/13 03:45:53;;;;;;;9.30;5.97;;;;;;;;;;2066156;28;20551;-58
2022/02/13 03:46:54;;;;;;;8.40;6.20;;;;;;;;;;2066258;28;20253;-57
2022/02/13 03:47:54;;;;;;;7.07;6.37;;;;;;;;;;2065815;28;20192;-58
2022/02/13 03:48:54;;;;;;;10.63;6.53;;;;;;;;;;2066028;28;20174;-60
2022/02/13 03:49:54;;;;;;;9.00;6.57;;;;;;;;;;2066581;28;20288;-60
2022/02/13 03:50:55;;;;;;;6.70;6.00;;;;;;;;;;2066106;28;20181;-57
2022/02/13 03:51:55;;;;;;;8.03;6.17;;;;;;;;;;2066766;28;20182;-59
2022/02/13 03:52:55;;;;;;;8.00;6.47;;;;;;;;;;2063831;28;20242;-57
2022/02/13 03:53:55;;;;;;;8.57;6.23;;;;;;;;;;2065554;28;20538;-60
2022/02/13 03:54:56;;;;;;;7.60;6.87;;;;;;;;;;2063551;28;20638;-58
2022/02/13 03:55:56;;;;;;;7.20;6.07;;;;;;;;;;2063884;28;20200;-59
2022/02/13 03:56:56;;;;;;;6.53;5.93;;;;;;;;;;2058862;28;20260;-59
2022/02/13 03:57:56;;;;;;;7.80;6.23;;;;;;;;;;2058148;28;20635;-59
2022/02/13 03:58:57;;;;;;;7.53;6.27;;;;;;;;;;2058109;28;20269;-59
2022/02/13 03:59:57;;;;;;;7.67;6.50;;;;;;;;;;2062228;28;20581;-58
2022/02/13 04:00:59;;;;;;;6.57;5.97;;;;;;;;;;2066124;28;20323;-59
2022/02/13 04:01:59;;;;;;;7.83;6.10;;;;;;;;;;2066380;28;20195;-57
2022/02/13 04:03:00;;;;;;;10.47;6.93;;;;;;;;;;2066148;28;20415;-58
2022/02/13 04:04:00;;;;;;;8.30;6.70;;;;;;;;;;2065194;28;20233;-54
2022/02/13 04:05:00;;;;;;;7.30;6.17;;;;;;;;;;2065739;28;20169;-57
2022/02/13 04:06:01;;;;;;;7.50;6.47;;;;;;;;;;2065751;28;20165;-56
2022/02/13 04:07:01;;;;;;;7.10;6.40;;;;;;;;;;2066215;28;20212;-58
2022/02/13 04:08:01;;;;;;;8.43;6.97;;;;;;;;;;2066489;28;20181;-58
2022/02/13 04:09:02;;;;;;;7.10;6.40;;;;;;;;;;2066382;28;20558;-60
2022/02/13 04:10:02;;;;;;;8.50;6.90;;;;;;;;;;2066115;28;20200;-59
2022/02/13 04:11:02;;;;;;;6.30;5.73;;;;;;;;;;2066372;28;20184;-58
2022/02/13 04:12:03;;;;;;;8.00;6.50;;;;;;;;;;2066876;28;20213;-58
2022/02/13 04:13:03;;;;;;;7.20;6.37;;;;;;;;;;2066508;28;20520;-57
2022/02/13 04:14:04;;;;;;;9.07;6.80;;;;;;;;;;2065697;28;20552;-57
2022/02/13 04:15:05;;;;;;;10.20;6.83;;;;;;;;;;2067738;28;20185;-58
2022/02/13 04:16:06;;;;;;;8.10;6.40;;;;;;;;;;2067099;28;20447;-59
2022/02/13 04:17:06;;;;;;;7.77;6.43;;;;;;;;;;2066360;28;20455;-57
2022/02/13 04:18:10;;;;;;;7.83;5.87;;;;;;;;;;2066292;28;20234;-59
2022/02/13 04:19:10;;;;;;;6.40;5.80;;;;;;;;;;2066689;28;20236;-59
2022/02/13 04:20:10;;;;;;;8.07;6.70;;;;;;;;;;2067146;28;20470;-59
2022/02/13 04:21:11;;;;;;;8.70;5.97;;;;;;;;;;2067031;28;20177;-59
2022/02/13 04:22:11;;;;;;;7.17;6.30;;;;;;;;;;2067231;28;20170;-60
2022/02/13 04:23:11;;;;;;;8.97;7.03;;;;;;;;;;2066933;28;20220;-59
2022/02/13 04:24:11;;;;;;;6.53;5.87;;;;;;;;;;2065957;28;20628;-59
2022/02/13 04:25:12;;;;;;;8.03;6.93;;;;;;;;;;2066473;28;20186;-58
2022/02/13 04:26:12;;;;;;;7.10;5.37;;;;;;;;;;2066835;28;20217;-58
2022/02/13 04:27:12;;;;;;;8.23;5.97;;;;;;;;;;2065996;28;20174;-59
2022/02/13 04:28:12;;;;;;;7.30;6.33;;;;;;;;;;2065895;28;20665;-58
2022/02/13 04:29:13;;;;;;;7.80;5.80;;;;;;;;;;2061063;28;20182;-58
2022/02/13 04:30:13;;;;;;;9.17;6.60;;;;;;;;;;2058927;28;20225;-59
2022/02/13 04:31:13;;;;;;;7.03;6.17;;;;;;;;;;2061397;28;20301;-58
2022/02/13 04:32:13;;;;;;;7.17;5.77;;;;;;;;;;2058126;28;20178;-57
2022/02/13 04:33:14;;;;;;;7.30;6.07;;;;;;;;;;2065691;28;20638;-58
2022/02/13 04:34:14;;;;;;;9.60;6.27;;;;;;;;;;2064979;28;20173;-57
2022/02/13 04:35:15;;;;;;;9.60;6.17;;;;;;;;;;2066234;28;20180;-60
2022/02/13 04:36:15;;;;;;;6.97;6.37;;;;;;;;;;2065624;28;20170;-59
2022/02/13 04:37:17;;;;;;;9.67;6.60;;;;;;;;;;2065548;28;20271;-60
2022/02/13 04:38:17;;;;;;;7.00;6.40;;;;;;;;;;2066573;28;20450;-58
2022/02/13 04:39:17;;;;;;;8.37;6.40;;;;;;;;;;2066269;28;20178;-59
2022/02/13 04:40:18;;;;;;;7.17;6.17;;;;;;;;;;2066436;28;20177;-59
2022/02/13 04:41:21;;;;;;;7.60;6.00;;;;;;;;;;2066111;28;20174;-59
2022/02/13 04:42:21;;;;;;;6.87;6.17;;;;;;;;;;2066359;28;20209;-59
2022/02/13 04:43:21;;;;;;;7.13;6.40;;;;;;;;;;2066239;28;20170;-57
2022/02/13 04:44:22;;;;;;;8.03;6.23;;;;;;;;;;2065894;28;20182;-59
2022/02/13 04:45:22;;;;;;;6.83;6.20;;;;;;;;;;2066442;28;20640;-59
2022/02/13 04:46:22;;;;;;;6.60;5.87;;;;;;;;;;2066334;28;20583;-57
2022/02/13 04:47:22;;;;;;;7.47;5.80;;;;;;;;;;2065951;28;20293;-58
2022/02/13 04:48:23;;;;;;;6.90;5.57;;;;;;;;;;2065789;28;20302;-57
2022/02/13 04:49:23;;;;;;;6.47;5.87;;;;;;;;;;2065807;28;20265;-57
2022/02/13 04:50:23;;;;;;;9.90;6.30;;;;;;;;;;2066133;28;20177;-59
2022/02/13 04:51:23;;;;;;;9.27;6.23;;;;;;;;;;2065989;28;20170;-57
2022/02/13 04:52:24;;;;;;;8.43;5.37;;;;;;;;;;2066368;28;20265;-59
2022/02/13 04:53:24;;;;;;;6.00;5.40;;;;;;;;;;2065796;28;20272;-58
2022/02/13 04:54:24;;;;;;;6.30;5.70;;;;;;;;;;2065567;28;20178;-57
2022/02/13 04:55:25;;;;;;;7.77;6.00;;;;;;;;;;2065721;28;20296;-58
2022/02/13 04:56:25;;;;;;;8.50;5.70;;;;;;;;;;2065836;28;20203;-58
2022/02/13 04:57:27;;;;;;;8.23;5.50;;;;;;;;;;2066054;28;20638;-58
2022/02/13 04:58:27;;;;;;;6.27;5.67;;;;;;;;;;2065857;28;20174;-59
2022/02/13 04:59:33;;;;;;;8.37;5.80;;;;;;;;;;2066056;28;20289;-59
2022/02/13 05:00:33;;;;;;;7.40;5.83;;;;;;;;;;2065622;28;20170;-59
2022/02/13 05:01:33;;;;;;;5.67;5.00;;;;;;;;;;2066430;28;20478;-59
2022/02/13 05:02:33;;;;;;;6.53;5.50;;;;;;;;;;2066030;28;20197;-61
2022/02/13 05:03:34;;;;;;;9.03;6.07;;;;;;;;;;2066115;28;20645;-58
2022/02/13 05:04:34;;;;;;;9.53;6.13;;;;;;;;;;2065530;28;20174;-59
2022/02/13 05:05:34;;;;;;;6.43;5.53;;;;;;;;;;2066105;28;20158;-59
2022/02/13 05:06:35;;;;;;;6.23;5.60;;;;;;;;;;2065927;28;20598;-58
2022/02/13 05:07:35;;;;;;;7.07;5.53;;;;;;;;;;2065854;28;20653;-58
2022/02/13 05:08:35;;;;;;;6.60;5.93;;;;;;;;;;2065804;28;20257;-59
2022/02/13 05:09:36;;;;;;;5.90;5.27;;;;;;;;;;2066629;28;20236;-58
2022/02/13 05:10:36;;;;;;;7.03;5.30;;;;;;;;;;2066346;28;20162;-60
2022/02/13 05:11:36;;;;;;;10.03;6.00;;;;;;;;;;2067222;28;20629;-60
2022/02/13 05:12:36;;;;;;;6.87;5.20;;;;;;;;;;2067264;28;20662;-60
2022/02/13 05:13:37;;;;;;;6.07;5.47;;;;;;;;;;2066432;28;20702;-59
2022/02/13 05:14:37;;;;;;;5.67;5.10;;;;;;;;;;2066297;28;20196;-59
2022/02/13 05:15:37;;;;;;;6.27;5.03;;;;;;;;;;2067496;28;20542;-58
2022/02/13 05:16:38;;;;;;;7.60;5.17;;;;;;;;;;2059204;28;20166;-58
2022/02/13 05:17:38;;;;;;;7.53;5.40;;;;;;;;;;2059735;28;20174;-60
2022/02/13 05:18:38;;;;;;;6.00;5.40;;;;;;;;;;2068072;28;20205;-61
2022/02/13 05:19:38;;;;;;;6.70;5.43;;;;;;;;;;2067046;28;20212;-59
2022/02/13 05:20:39;;;;;;;6.07;5.57;;;;;;;;;;2067614;28;20170;-59
2022/02/13 05:21:40;;;;;;;6.63;5.37;;;;;;;;;;2067776;28;20186;-59
2022/02/13 05:22:40;;;;;;;5.37;4.73;;;;;;;;;;2067965;28;20201;-58
2022/02/13 05:23:41;;;;;;;5.60;5.00;;;;;;;;;;2068481;28;20176;-58
2022/02/13 05:24:41;;;;;;;6.63;5.30;;;;;;;;;;2069214;28;20367;-59
2022/02/13 05:25:41;;;;;;;7.13;4.77;;;;;;;;;;2068569;28;20170;-58
2022/02/13 05:26:41;;;;;;;5.30;4.80;;;;;;;;;;2067968;28;20701;-56
2022/02/13 05:27:41;;;;;;;6.57;5.27;;;;;;;;;;2068429;28;20212;-60
2022/02/13 05:28:42;;;;;;;6.13;5.20;;;;;;;;;;2067646;28;20177;-58
2022/02/13 05:29:42;;;;;;;5.87;4.90;;;;;;;;;;2067434;28;20202;-60
2022/02/13 05:30:42;;;;;;;5.20;4.70;;;;;;;;;;2066799;28;20170;-60
2022/02/13 05:31:43;;;;;;;6.17;5.43;;;;;;;;;;2065831;28;20169;-58
2022/02/13 05:32:43;;;;;;;6.90;4.73;;;;;;;;;;2066010;28;20176;-59
2022/02/13 05:33:43;;;;;;;6.80;5.00;;;;;;;;;;2065661;28;20174;-57
2022/02/13 05:34:43;;;;;;;6.93;5.10;;;;;;;;;;2065896;28;20228;-57
2022/02/13 05:35:44;;;;;;;7.13;4.93;;;;;;;;;;2066556;28;20169;-57
2022/02/13 05:36:44;;;;;;;6.23;5.30;;;;;;;;;;2064988;28;20205;-58
2022/02/13 05:37:47;;;;;;;5.50;5.00;;;;;;;;;;2058451;28;20186;-58
2022/02/13 05:38:47;;;;;;;5.87;5.37;;;;;;;;;;2062194;28;20668;-57
2022/02/13 05:39:47;;;;;;;7.23;5.27;;;;;;;;;;2066414;28;20216;-55
2022/02/13 05:40:48;;;;;;;5.03;4.53;;;;;;;;;;2066886;28;20166;-58
2022/02/13 05:41:48;;;;;;;6.47;4.90;;;;;;;;;;2066566;28;20548;-58
2022/02/13 05:42:48;;;;;;;5.27;4.50;;;;;;;;;;2066538;28;20201;-57
2022/02/13 05:43:49;;;;;;;5.20;4.73;;;;;;;;;;2066565;28;20178;-57
2022/02/13 05:44:51;;;;;;;5.93;5.43;;;;;;;;;;2065960;28;20185;-59
2022/02/13 05:45:51;;;;;;;11.87;5.03;;;;;;;;;;2065311;28;20174;-58
2022/02/13 05:46:51;;;;;;;5.93;5.30;;;;;;;;;;2065552;28;20196;-60
2022/02/13 05:47:51;;;;;;;5.50;5.13;;;;;;;;;;2065903;28;20170;-57
2022/02/13 05:48:52;;;;;;;6.03;5.47;;;;;;;;;;2065860;28;20173;-59
2022/02/13 05:49:52;;;;;;;6.00;4.97;;;;;;;;;;2065849;28;20696;-58
2022/02/13 05:50:53;;;;;;;5.60;5.10;;;;;;;;;;2065543;28;20263;-58
2022/02/13 05:51:54;;;;;;;5.40;4.93;;;;;;;;;;2066382;28;20174;-59
2022/02/13 05:52:54;;;;;;;6.17;5.57;;;;;;;;;;2066371;28;20305;-56
2022/02/13 05:53:55;;;;;;;7.57;5.17;;;;;;;;;;2065746;28;20772;-58
2022/02/13 05:54:55;;;;;;;5.63;5.13;;;;;;;;;;2065800;28;20178;-61
2022/02/13 05:55:55;;;;;;;5.50;4.93;;;;;;;;;;2066198;28;20179;-59
2022/02/13 05:56:55;;;;;;;7.10;5.63;;;;;;;;;;2065717;28;20185;-59
2022/02/13 05:57:56;;;;;;;6.13;5.27;;;;;;;;;;2065296;28;20193;-59
2022/02/13 05:58:56;;;;;;;5.33;4.40;;;;;;;;;;2065172;28;20251;-58
2022/02/13 05:59:56;;;;;;;5.80;5.20;;;;;;;;;;2065363;28;20197;-56
2022/02/13 06:00:56;;;;;;;5.03;4.63;;;;;;;;;;2056701;28;20265;-55
2022/02/13 06:01:57;;;;;;;6.93;4.87;;;;;;;;;;2065547;28;20177;-54